Time;durP1;ratioP1;P1;durP2;ratioP2;P2;SDS_P1;SDS_P2;PMS_P1;PMS_P2;Temp;Humidity;BMP_temperature;BMP_pressure;BME280_temperature;BME280_humidity;BME280_pressure;Samples;Min_cycle;Max_cycle;Signal;HPM_P1;HPM_P2
2021/11/23 00:01:44;;;;;;;14.50;10.23;;;6.00;78.50;;;;;;5097981;28;20172;-81
2021/11/23 00:04:10;;;;;;;17.23;9.97;;;6.00;78.50;;;;;;5098642;28;20230;-81
2021/11/23 00:06:38;;;;;;;14.70;8.97;;;6.00;78.40;;;;;;5097769;28;20176;-81
2021/11/23 00:09:04;;;;;;;12.75;8.10;;;6.10;78.00;;;;;;5081483;28;20207;-81
2021/11/23 00:11:30;;;;;;;12.55;8.63;;;6.10;77.70;;;;;;5080193;28;20206;-81
2021/11/23 00:13:56;;;;;;;16.63;9.13;;;6.00;77.40;;;;;;5080003;28;20302;-81
2021/11/23 00:16:22;;;;;;;15.50;8.43;;;6.00;77.30;;;;;;5080801;28;20215;-82
2021/11/23 00:18:49;;;;;;;17.27;8.50;;;6.00;77.10;;;;;;5080284;28;20485;-81
2021/11/23 00:21:16;;;;;;;22.40;8.40;;;5.80;77.00;;;;;;5098286;28;20521;-81
2021/11/23 00:23:42;;;;;;;15.13;8.18;;;5.70;77.30;;;;;;5079407;28;21118;-81
2021/11/23 00:26:08;;;;;;;13.73;9.77;;;5.70;77.50;;;;;;5098198;28;20203;-81
2021/11/23 00:28:34;;;;;;;15.93;9.90;;;5.60;77.70;;;;;;5079851;28;20198;-80
2021/11/23 00:31:00;;;;;;;10.63;7.53;;;5.40;78.20;;;;;;5080391;28;20191;-81
2021/11/23 00:33:30;;;;;;;13.98;7.90;;;5.30;78.80;;;;;;5097706;28;20428;-81
2021/11/23 00:35:56;;;;;;;10.48;7.20;;;5.20;79.20;;;;;;5097320;28;20190;-81
2021/11/23 00:38:22;;;;;;;11.82;8.80;;;5.20;79.60;;;;;;5080125;28;20617;-81
2021/11/23 00:40:48;;;;;;;16.93;9.10;;;5.30;79.70;;;;;;5098070;28;20184;-81
2021/11/23 00:43:16;;;;;;;16.80;8.25;;;5.30;79.70;;;;;;5097502;28;20262;-82
2021/11/23 00:45:42;;;;;;;15.00;9.50;;;5.40;79.70;;;;;;5078838;28;20187;-81
2021/11/23 00:48:09;;;;;;;11.93;8.80;;;5.60;79.50;;;;;;5096983;28;20224;-82
2021/11/23 00:50:36;;;;;;;13.15;8.82;;;5.70;78.90;;;;;;5097478;28;20192;-81
2021/11/23 00:53:07;;;;;;;14.93;8.95;;;5.60;78.50;;;;;;5081091;28;20175;-81
2021/11/23 00:55:34;;;;;;;12.40;8.30;;;5.50;78.80;;;;;;5079426;28;20698;-82
2021/11/23 00:58:00;;;;;;;10.95;8.52;;;5.40;79.00;;;;;;5079480;28;20707;-82
2021/11/23 01:00:26;;;;;;;17.23;8.80;;;5.40;79.10;;;;;;5079500;28;20184;-81
2021/11/23 01:02:52;;;;;;;33.25;9.60;;;5.50;79.10;;;;;;5079681;28;20710;-82
2021/11/23 01:05:18;;;;;;;15.70;8.90;;;5.60;78.60;;;;;;5080187;28;20211;-82
2021/11/23 01:07:43;;;;;;;14.65;8.38;;;5.80;78.20;;;;;;5085292;28;20176;-81
2021/11/23 01:10:10;;;;;;;13.10;8.77;;;5.60;78.10;;;;;;5085002;28;20240;-82
2021/11/23 01:12:37;;;;;;;12.85;9.85;;;5.20;78.50;;;;;;5078552;28;20418;-81
2021/11/23 01:15:05;;;;;;;14.48;9.60;;;5.00;79.50;;;;;;5074763;28;20234;-82
2021/11/23 01:17:31;;;;;;;16.98;9.38;;;4.90;80.20;;;;;;5077831;28;20180;-81
2021/11/23 01:19:57;;;;;;;17.33;9.20;;;5.00;80.70;;;;;;5081700;28;20210;-82
2021/11/23 01:22:23;;;;;;;11.27;8.30;;;5.00;80.90;;;;;;5093278;28;20967;-82
2021/11/23 01:24:49;;;;;;;13.27;8.53;;;4.90;81.20;;;;;;5108938;28;20468;-82
2021/11/23 01:27:15;;;;;;;14.00;9.63;;;4.90;81.30;;;;;;5110929;28;20422;-81
2021/11/23 01:29:41;;;;;;;11.50;8.75;;;4.90;81.40;;;;;;5090635;28;20828;-82
2021/11/23 01:32:08;;;;;;;16.42;9.95;;;4.90;81.60;;;;;;5103789;28;20184;-82
2021/11/23 01:34:33;;;;;;;19.40;8.55;;;4.80;81.70;;;;;;5070289;28;20215;-82
2021/11/23 01:36:59;;;;;;;12.13;9.07;;;4.80;81.90;;;;;;5076615;28;20191;-82
2021/11/23 01:39:25;;;;;;;15.73;9.13;;;4.80;82.00;;;;;;5094939;28;20457;-82
2021/11/23 01:41:51;;;;;;;15.83;10.07;;;4.80;82.00;;;;;;5079439;28;20206;-81
2021/11/23 01:44:17;;;;;;;20.15;10.20;;;4.70;82.20;;;;;;5096834;28;20476;-81
2021/11/23 01:46:43;;;;;;;11.13;8.52;;;4.60;82.50;;;;;;5098069;28;20184;-82
2021/11/23 01:49:09;;;;;;;21.50;10.30;;;4.60;82.70;;;;;;5101449;28;20176;-82
2021/11/23 01:51:35;;;;;;;19.93;10.53;;;4.60;82.80;;;;;;5100763;28;20176;-82
2021/11/23 01:54:01;;;;;;;12.48;9.05;;;4.80;82.80;;;;;;5107905;28;20200;-81
2021/11/23 01:56:27;;;;;;;13.05;9.38;;;4.90;82.50;;;;;;5082374;28;20678;-81
2021/11/23 01:58:53;;;;;;;15.38;9.85;;;5.10;82.20;;;;;;5082750;28;20200;-81
2021/11/23 02:01:19;;;;;;;16.58;9.02;;;5.20;81.50;;;;;;5082194;28;20187;-82
2021/11/23 02:03:45;;;;;;;14.63;9.70;;;5.30;80.80;;;;;;5082403;28;20191;-81
2021/11/23 02:06:11;;;;;;;15.33;9.53;;;5.10;80.60;;;;;;5101540;28;20430;-81
2021/11/23 02:08:37;;;;;;;15.23;9.43;;;5.10;80.70;;;;;;5082269;28;20413;-82
2021/11/23 02:11:03;;;;;;;21.33;11.40;;;5.00;80.90;;;;;;5102066;28;20191;-82
2021/11/23 02:13:29;;;;;;;14.35;10.13;;;4.90;81.20;;;;;;5091656;28;20188;-83
2021/11/23 02:15:57;;;;;;;17.23;9.40;;;4.90;81.50;;;;;;5117137;28;20187;-81
2021/11/23 02:18:23;;;;;;;28.30;11.02;;;4.70;81.60;;;;;;5102111;28;20217;-81
2021/11/23 02:20:50;;;;;;;14.45;10.02;;;4.80;81.80;;;;;;5081638;28;20177;-82
2021/11/23 02:23:18;;;;;;;14.27;9.85;;;5.00;81.80;;;;;;5115874;28;20179;-83
2021/11/23 02:25:44;;;;;;;20.48;9.73;;;5.20;81.40;;;;;;5088533;28;20207;-82
2021/11/23 02:28:11;;;;;;;12.40;9.88;;;5.20;80.80;;;;;;5102883;28;20346;-81
2021/11/23 02:30:50;;;;;;;22.17;11.05;;;5.20;80.80;;;;;;5083195;28;20180;-82
2021/11/23 02:33:20;;;;;;;17.88;10.43;;;5.10;80.80;;;;;;5097420;28;20172;-82
2021/11/23 02:35:49;;;;;;;19.60;10.25;;;5.00;80.90;;;;;;5101244;28;20176;-81
2021/11/23 02:38:18;;;;;;;17.70;10.30;;;5.00;81.10;;;;;;5081816;28;20203;-81
2021/11/23 02:40:43;;;;;;;21.52;9.82;;;5.10;81.20;;;;;;5083788;28;20176;-82
2021/11/23 02:43:09;;;;;;;21.60;11.10;;;5.20;81.10;;;;;;5100611;28;20183;-81
2021/11/23 02:45:35;;;;;;;21.57;10.70;;;5.10;81.00;;;;;;5100748;28;20459;-81
2021/11/23 02:48:02;;;;;;;18.40;10.60;;;4.80;81.10;;;;;;5089283;28;20179;-82
2021/11/23 02:50:29;;;;;;;18.88;10.35;;;4.70;81.50;;;;;;5063487;28;20176;-83
2021/11/23 02:52:55;;;;;;;19.30;10.80;;;4.70;81.80;;;;;;5102438;28;20227;-83
2021/11/23 02:55:25;;;;;;;18.15;9.85;;;4.80;81.80;;;;;;5102606;28;20200;-82
2021/11/23 02:57:51;;;;;;;17.33;10.35;;;4.90;81.90;;;;;;5084957;28;20175;-81
2021/11/23 03:00:21;;;;;;;21.20;10.10;;;4.90;81.70;;;;;;5084367;28;20266;-80
2021/11/23 03:02:47;;;;;;;18.30;10.20;;;4.70;82.50;;;;;;5082636;28;20471;-80
2021/11/23 03:05:15;;;;;;;19.77;11.52;;;4.80;81.90;;;;;;5082482;28;20573;-81
2021/11/23 03:07:41;;;;;;;18.73;11.20;;;4.80;82.00;;;;;;5082388;28;20193;-81
2021/11/23 03:10:09;;;;;;;21.63;11.83;;;4.90;82.20;;;;;;5101812;28;20186;-81
2021/11/23 03:12:36;;;;;;;23.63;10.18;;;5.10;81.90;;;;;;5102582;28;20209;-80
2021/11/23 03:15:03;;;;;;;23.35;11.93;;;5.20;81.50;;;;;;5084681;28;20618;-81
2021/11/23 03:17:28;;;;;;;20.02;9.27;;;5.20;81.30;;;;;;5117715;28;20214;-82
2021/11/23 03:19:54;;;;;;;18.50;10.80;;;5.00;81.40;;;;;;5098533;28;20219;-81
2021/11/23 03:22:20;;;;;;;21.17;11.90;;;5.10;81.70;;;;;;5098220;28;20445;-81
2021/11/23 03:24:46;;;;;;;18.67;11.40;;;5.20;81.70;;;;;;5087576;28;20460;-80
2021/11/23 03:27:13;;;;;;;18.55;10.40;;;5.20;81.60;;;;;;5084621;28;20429;-82
2021/11/23 03:29:40;;;;;;;15.48;10.05;;;5.40;81.30;;;;;;5101878;28;20184;-81
2021/11/23 03:32:08;;;;;;;24.50;12.98;;;5.50;81.00;;;;;;5098320;28;20248;-81
2021/11/23 03:34:38;;;;;;;13.32;10.65;;;5.60;80.50;;;;;;5080903;28;20207;-81
2021/11/23 03:37:07;;;;;;;16.13;9.90;;;5.50;80.50;;;;;;5081460;28;20187;-81
2021/11/23 03:39:32;;;;;;;19.90;10.40;;;5.50;80.60;;;;;;5080424;28;20203;-81
2021/11/23 03:41:58;;;;;;;21.83;11.00;;;5.60;80.50;;;;;;5082071;28;20203;-81
2021/11/23 03:44:24;;;;;;;17.83;10.10;;;5.70;80.40;;;;;;5081733;28;20524;-80
2021/11/23 03:46:50;;;;;;;13.25;8.90;;;5.80;80.00;;;;;;5100745;28;20187;-81
2021/11/23 03:49:16;;;;;;;15.33;8.53;;;6.00;79.00;;;;;;5101452;28;20187;-82
2021/11/23 03:51:42;;;;;;;23.50;10.03;;;6.00;78.00;;;;;;5092107;28;20928;-82
2021/11/23 03:54:07;;;;;;;15.83;9.10;;;5.90;77.70;;;;;;5102630;28;20310;-81
2021/11/23 03:56:33;;;;;;;15.23;9.93;;;5.70;77.50;;;;;;5095012;28;20241;-80
2021/11/23 03:58:59;;;;;;;12.83;8.67;;;5.80;77.70;;;;;;5113823;28;20445;-81
2021/11/23 04:01:25;;;;;;;15.87;10.23;;;5.80;77.80;;;;;;5116174;28;20184;-81
2021/11/23 04:03:50;;;;;;;13.80;9.50;;;5.90;77.90;;;;;;5097406;28;20204;-81
2021/11/23 04:06:16;;;;;;;20.87;10.80;;;6.00;77.50;;;;;;5092834;28;20195;-82
2021/11/23 04:08:42;;;;;;;16.87;9.27;;;6.10;77.20;;;;;;5098839;28;20313;-82
2021/11/23 04:11:07;;;;;;;20.33;9.87;;;6.20;76.80;;;;;;5078748;28;20261;-82
2021/11/23 04:13:33;;;;;;;14.17;9.33;;;6.20;76.80;;;;;;5078353;28;20442;-81
2021/11/23 04:15:59;;;;;;;15.10;8.20;;;6.20;76.70;;;;;;5079880;28;20240;-82
2021/11/23 04:18:25;;;;;;;14.00;7.77;;;6.20;76.50;;;;;;5097652;28;20238;-82
2021/11/23 04:20:51;;;;;;;18.70;8.80;;;6.30;76.50;;;;;;5095448;28;20778;-82
2021/11/23 04:23:17;;;;;;;9.60;8.30;;;6.20;76.40;;;;;;5075575;28;20422;-81
2021/11/23 04:25:43;;;;;;;13.38;7.65;;;6.10;76.00;;;;;;5095620;28;20175;-81
2021/11/23 04:28:08;;;;;;;14.37;8.70;;;6.00;76.00;;;;;;5081248;28;20184;-82
2021/11/23 04:30:34;;;;;;;16.00;9.13;;;5.80;76.50;;;;;;5099211;28;20175;-81
2021/11/23 04:33:00;;;;;;;15.20;9.33;;;5.90;77.20;;;;;;5099506;28;20167;-82
2021/11/23 04:35:26;;;;;;;14.37;8.60;;;6.00;77.40;;;;;;5086020;28;20493;-81
2021/11/23 04:37:51;;;;;;;12.27;9.33;;;5.90;77.30;;;;;;5094235;28;20176;-82
2021/11/23 04:40:18;;;;;;;16.80;9.50;;;5.90;77.30;;;;;;5094253;28;20451;-82
2021/11/23 04:42:44;;;;;;;10.73;7.60;;;6.10;77.40;;;;;;5091937;28;20188;-81
2021/11/23 04:45:13;;;;;;;14.27;10.10;;;6.00;77.40;;;;;;5079743;28;20261;-82
2021/11/23 04:47:39;;;;;;;14.48;9.48;;;6.10;77.70;;;;;;5078811;28;20437;-82
2021/11/23 04:50:06;;;;;;;17.53;9.33;;;6.30;77.40;;;;;;5099349;28;20560;-82
2021/11/23 04:52:32;;;;;;;17.15;8.95;;;6.40;77.70;;;;;;5102194;28;20176;-81
2021/11/23 04:54:58;;;;;;;15.13;8.53;;;6.00;76.80;;;;;;5102718;28;20267;-82
2021/11/23 04:57:24;;;;;;;20.83;9.77;;;6.10;77.40;;;;;;5086313;28;20426;-82
2021/11/23 04:59:51;;;;;;;15.70;9.07;;;5.70;77.70;;;;;;5082316;28;20235;-82
2021/11/23 05:02:18;;;;;;;15.52;8.18;;;5.90;78.30;;;;;;5080355;28;20187;-82
2021/11/23 05:04:44;;;;;;;18.48;8.85;;;5.90;78.50;;;;;;5080397;28;20214;-81
2021/11/23 05:07:10;;;;;;;13.35;8.73;;;6.10;78.80;;;;;;5099245;28;20192;-82
2021/11/23 05:09:36;;;;;;;14.00;9.50;;;6.10;78.50;;;;;;5080024;28;20248;-82
2021/11/23 05:12:01;;;;;;;16.80;9.70;;;6.20;78.60;;;;;;5079781;28;20212;-82
2021/11/23 05:14:27;;;;;;;15.30;10.17;;;6.30;78.50;;;;;;5098109;28;20268;-82
2021/11/23 05:16:53;;;;;;;11.97;9.07;;;6.30;78.40;;;;;;5087257;28;20429;-82
2021/11/23 05:19:19;;;;;;;14.47;9.27;;;6.30;78.40;;;;;;5086023;28;20192;-82
2021/11/23 05:21:45;;;;;;;14.80;8.90;;;6.60;78.30;;;;;;5086840;28;20786;-81
2021/11/23 05:24:11;;;;;;;20.02;10.88;;;6.70;77.70;;;;;;5091677;28;20994;-82
2021/11/23 05:26:37;;;;;;;16.83;11.00;;;6.60;77.40;;;;;;5108730;28;20184;-82
2021/11/23 05:29:04;;;;;;;19.38;10.32;;;6.80;78.10;;;;;;5087146;28;20425;-82
2021/11/23 05:31:30;;;;;;;19.38;10.70;;;6.90;77.00;;;;;;5087660;28;20190;-82
2021/11/23 05:33:56;;;;;;;16.70;10.30;;;6.80;76.80;;;;;;5086204;28;20204;-82
2021/11/23 05:36:23;;;;;;;20.63;11.67;;;6.80;76.80;;;;;;5087180;28;20176;-82
2021/11/23 05:38:50;;;;;;;22.55;11.95;;;6.80;76.90;;;;;;5086098;28;20449;-82
2021/11/23 05:41:15;;;;;;;16.75;9.60;;;6.90;77.00;;;;;;5069521;28;20176;-81
2021/11/23 05:43:41;;;;;;;23.53;10.90;;;7.00;76.60;;;;;;5086564;28;20642;-81
2021/11/23 05:46:07;;;;;;;13.43;10.20;;;7.10;76.40;;;;;;5087278;28;20168;-82
2021/11/23 05:48:33;;;;;;;23.63;11.68;;;7.20;75.90;;;;;;5087526;28;20421;-82
2021/11/23 05:51:03;;;;;;;20.67;10.93;;;7.10;75.60;;;;;;5088375;28;20588;-82
2021/11/23 05:53:30;;;;;;;20.77;12.90;;;7.10;75.60;;;;;;5106195;28;20194;-82
2021/11/23 05:55:56;;;;;;;20.40;11.88;;;7.00;75.70;;;;;;5105210;28;20658;-81
2021/11/23 05:58:21;;;;;;;17.60;11.03;;;6.90;75.80;;;;;;5098898;28;20199;-80
2021/11/23 06:00:47;;;;;;;19.10;11.00;;;7.00;75.90;;;;;;5119765;28;20184;-82
2021/11/23 06:03:13;;;;;;;26.83;11.50;;;7.30;75.60;;;;;;5119080;28;20168;-82
2021/11/23 06:05:39;;;;;;;21.92;14.38;;;7.40;75.10;;;;;;5101160;28;20487;-82
2021/11/23 06:08:05;;;;;;;19.93;11.20;;;7.40;74.70;;;;;;5084739;28;20199;-81
2021/11/23 06:10:30;;;;;;;18.35;10.65;;;7.40;74.70;;;;;;5093625;28;20262;-81
2021/11/23 06:12:56;;;;;;;22.07;12.20;;;7.30;75.00;;;;;;5107063;28;20180;-82
2021/11/23 06:15:23;;;;;;;21.83;12.37;;;7.30;75.40;;;;;;5108327;28;20456;-81
2021/11/23 06:17:57;;;;;;;23.30;11.32;;;7.40;75.20;;;;;;5088982;28;20651;-81
2021/11/23 06:20:23;;;;;;;17.35;10.60;;;7.30;75.20;;;;;;5090610;28;20182;-82
2021/11/23 06:22:48;;;;;;;20.13;11.70;;;7.20;75.40;;;;;;5106922;28;20195;-82
2021/11/23 06:25:14;;;;;;;24.57;11.50;;;7.20;75.70;;;;;;5105332;28;20191;-82
2021/11/23 06:27:40;;;;;;;18.73;11.73;;;7.30;75.60;;;;;;5106330;28;20168;-82
2021/11/23 06:30:07;;;;;;;20.00;11.43;;;7.40;75.70;;;;;;5087968;28;20548;-81
2021/11/23 06:32:33;;;;;;;25.83;13.32;;;7.30;75.80;;;;;;5085458;28;20422;-82
2021/11/23 06:34:59;;;;;;;26.90;13.93;;;7.50;75.70;;;;;;5083325;28;20227;-81
2021/11/23 06:37:24;;;;;;;27.97;13.90;;;7.70;75.30;;;;;;5102731;28;20183;-81
2021/11/23 06:39:50;;;;;;;26.90;13.60;;;7.70;74.70;;;;;;5093134;28;20203;-80
2021/11/23 06:42:16;;;;;;;21.37;12.77;;;7.70;74.50;;;;;;5086233;28;20192;-82
2021/11/23 06:44:42;;;;;;;21.92;12.60;;;7.80;74.40;;;;;;5085196;28;20218;-81
2021/11/23 06:47:08;;;;;;;25.90;13.30;;;7.70;74.40;;;;;;5069553;28;20187;-81
2021/11/23 06:49:34;;;;;;;35.58;13.52;;;7.60;74.40;;;;;;5089262;28;20211;-81
2021/11/23 06:51:59;;;;;;;23.47;12.73;;;7.70;74.50;;;;;;5107771;28;20187;-81
2021/11/23 06:54:25;;;;;;;28.73;12.93;;;7.60;74.40;;;;;;5087912;28;20214;-80
2021/11/23 06:56:54;;;;;;;26.73;12.90;;;7.60;74.70;;;;;;5072271;28;20426;-81
2021/11/23 06:59:20;;;;;;;23.02;13.38;;;7.70;74.80;;;;;;5107703;28;20279;-81
2021/11/23 07:01:45;;;;;;;22.43;13.70;;;7.80;74.30;;;;;;5085319;28;20204;-81
2021/11/23 07:04:11;;;;;;;23.80;12.80;;;7.80;73.90;;;;;;5101877;28;20198;-81
2021/11/23 07:06:37;;;;;;;29.77;13.00;;;7.70;73.90;;;;;;5084552;28;20187;-81
2021/11/23 07:09:02;;;;;;;28.00;13.10;;;7.70;74.10;;;;;;5100370;28;20788;-82
2021/11/23 07:11:28;;;;;;;20.90;12.73;;;7.30;74.00;;;;;;5100352;28;20192;-80
2021/11/23 07:13:54;;;;;;;27.93;12.63;;;7.30;74.70;;;;;;5098261;28;20226;-79
2021/11/23 07:16:19;;;;;;;23.63;12.07;;;7.40;74.80;;;;;;5118124;28;20189;-79
2021/11/23 07:18:45;;;;;;;25.97;12.07;;;7.50;74.90;;;;;;5100529;28;20247;-79
2021/11/23 07:21:11;;;;;;;32.40;12.90;;;7.60;74.70;;;;;;5115554;28;20203;-79
2021/11/23 07:23:37;;;;;;;26.83;13.60;;;7.50;74.70;;;;;;5090476;28;20199;-80
2021/11/23 07:26:02;;;;;;;20.50;12.33;;;7.60;75.10;;;;;;5089505;28;20425;-79
2021/11/23 07:28:28;;;;;;;20.90;11.30;;;7.60;74.90;;;;;;5107412;28;20179;-80
2021/11/23 07:30:56;;;;;;;19.70;11.63;;;7.40;75.50;;;;;;5075340;28;20718;-80
2021/11/23 07:33:23;;;;;;;21.73;11.88;;;7.30;74.90;;;;;;5085067;28;20250;-81
2021/11/23 07:35:48;;;;;;;19.83;11.45;;;7.10;75.60;;;;;;5082486;28;20180;-81
2021/11/23 07:38:14;;;;;;;19.73;12.10;;;7.00;76.10;;;;;;5081290;28;20526;-79
2021/11/23 07:40:41;;;;;;;18.17;12.30;;;7.20;76.30;;;;;;5099192;28;20221;-78
2021/11/23 07:43:07;;;;;;;18.63;11.98;;;7.30;76.20;;;;;;5082439;28;20195;-79
2021/11/23 07:45:32;;;;;;;13.77;11.05;;;7.20;76.10;;;;;;5100279;28;20333;-80
2021/11/23 07:47:58;;;;;;;16.50;11.30;;;7.30;76.20;;;;;;5082440;28;20256;-80
2021/11/23 07:50:24;;;;;;;20.60;12.00;;;7.40;75.90;;;;;;5081961;28;20425;-79
2021/11/23 07:52:50;;;;;;;23.30;12.80;;;7.30;75.90;;;;;;5102754;28;20425;-80
2021/11/23 07:55:16;;;;;;;24.67;12.00;;;7.30;76.10;;;;;;5079544;28;20262;-80
2021/11/23 07:57:41;;;;;;;18.20;12.03;;;7.10;76.30;;;;;;5080734;28;20445;-80
2021/11/23 08:00:08;;;;;;;17.50;11.13;;;7.20;76.70;;;;;;5099275;28;20196;-80
2021/11/23 08:02:33;;;;;;;19.45;11.75;;;7.20;76.90;;;;;;5102443;28;20167;-80
2021/11/23 08:04:59;;;;;;;19.03;11.17;;;7.10;77.30;;;;;;5098313;28;20557;-80
2021/11/23 08:07:28;;;;;;;16.97;10.00;;;7.20;77.40;;;;;;5084154;28;20184;-80
2021/11/23 08:09:54;;;;;;;20.42;11.45;;;7.30;77.60;;;;;;5100164;28;20464;-80
2021/11/23 08:12:19;;;;;;;21.95;11.95;;;7.50;77.50;;;;;;5084076;28;20581;-79
2021/11/23 08:14:45;;;;;;;28.50;10.87;;;7.50;77.40;;;;;;5099965;28;20211;-79
2021/11/23 08:17:11;;;;;;;23.67;10.47;;;7.40;77.50;;;;;;5105673;28;20248;-80
2021/11/23 08:19:37;;;;;;;24.47;11.93;;;7.30;78.00;;;;;;5098484;28;20195;-80
2021/11/23 08:22:02;;;;;;;25.03;12.50;;;7.20;78.40;;;;;;5079782;28;20639;-80
2021/11/23 08:24:28;;;;;;;30.43;12.97;;;7.10;79.10;;;;;;5079033;28;20461;-80
2021/11/23 08:26:58;;;;;;;29.07;13.37;;;7.10;79.70;;;;;;5079512;28;20180;-80
2021/11/23 08:29:26;;;;;;;23.95;12.93;;;7.20;80.10;;;;;;5072010;28;20176;-80
2021/11/23 08:31:53;;;;;;;29.35;12.85;;;7.10;80.50;;;;;;5080657;28;20584;-80
2021/11/23 08:34:21;;;;;;;27.80;13.90;;;7.10;80.80;;;;;;5097165;28;20577;-79
2021/11/23 08:36:48;;;;;;;27.02;13.82;;;7.10;81.10;;;;;;5080016;28;20581;-80
2021/11/23 08:39:14;;;;;;;23.90;11.48;;;7.20;81.20;;;;;;5079791;28;20208;-79
2021/11/23 08:41:41;;;;;;;23.40;11.17;;;7.20;81.40;;;;;;5080479;28;20180;-79
2021/11/23 08:44:07;;;;;;;23.48;12.15;;;7.40;81.20;;;;;;5079751;28;20203;-80
2021/11/23 08:46:33;;;;;;;23.40;12.10;;;7.30;81.30;;;;;;5064759;28;20270;-80
2021/11/23 08:49:00;;;;;;;18.67;11.93;;;7.40;81.50;;;;;;5102716;28;20459;-81
2021/11/23 08:51:30;;;;;;;27.95;13.27;;;7.50;81.40;;;;;;5081784;28;20188;-80
2021/11/23 08:53:56;;;;;;;23.63;12.55;;;7.40;81.20;;;;;;5080463;28;20200;-81
2021/11/23 08:56:21;;;;;;;30.57;13.13;;;7.50;81.40;;;;;;5079744;28;20317;-80
2021/11/23 08:58:51;;;;;;;24.00;12.27;;;7.50;81.40;;;;;;5064154;28;20518;-80
2021/11/23 09:01:21;;;;;;;23.13;12.55;;;7.60;81.40;;;;;;5098251;28;20414;-80
2021/11/23 09:03:46;;;;;;;27.27;11.50;;;7.70;81.20;;;;;;5098475;28;20670;-80
2021/11/23 09:06:13;;;;;;;19.27;12.97;;;7.60;81.10;;;;;;5080673;28;20187;-79
2021/11/23 09:09:01;;;;;;;20.17;13.02;;;7.60;81.10;;;;;;5109946;28;20429;-80
2021/11/23 09:11:26;;;;;;;16.27;11.20;;;7.60;81.20;;;;;;5108177;28;20191;-80
2021/11/23 09:13:54;;;;;;;24.20;13.85;;;7.70;81.40;;;;;;5085759;28;20238;-80
2021/11/23 09:16:21;;;;;;;25.80;15.27;;;7.90;81.40;;;;;;5074016;28;20233;-79
2021/11/23 09:18:47;;;;;;;24.23;14.18;;;8.20;81.00;;;;;;5085545;28;20259;-79
2021/11/23 09:21:13;;;;;;;29.13;13.57;;;8.20;80.70;;;;;;5102303;28;20187;-80
2021/11/23 09:23:39;;;;;;;24.77;13.52;;;8.40;80.50;;;;;;5079803;28;20434;-80
2021/11/23 09:26:05;;;;;;;36.10;13.40;;;8.40;80.20;;;;;;5080205;28;20186;-80
2021/11/23 09:28:30;;;;;;;20.77;13.73;;;8.40;80.20;;;;;;5097719;28;20426;-80
2021/11/23 09:30:56;;;;;;;25.67;13.33;;;8.40;80.20;;;;;;5097843;28;20176;-80
2021/11/23 09:33:22;;;;;;;36.72;15.07;;;8.60;80.00;;;;;;5079268;28;20176;-80
2021/11/23 09:35:48;;;;;;;31.35;14.55;;;8.70;79.70;;;;;;5078818;28;20184;-80
2021/11/23 09:38:14;;;;;;;31.60;14.60;;;8.60;79.60;;;;;;5080196;28;20179;-79
2021/11/23 09:40:41;;;;;;;26.90;12.60;;;8.80;79.50;;;;;;5097669;28;20541;-80
2021/11/23 09:43:07;;;;;;;27.23;16.17;;;8.90;79.10;;;;;;5098473;28;20496;-80
2021/11/23 09:45:33;;;;;;;29.30;14.60;;;8.80;78.90;;;;;;5099249;28;20681;-80
2021/11/23 09:48:07;;;;;;;23.55;13.85;;;8.80;78.90;;;;;;5083058;28;20450;-80
2021/11/23 09:50:33;;;;;;;21.30;13.77;;;8.90;79.00;;;;;;5085387;28;20184;-79
2021/11/23 09:52:58;;;;;;;24.63;13.50;;;9.00;78.90;;;;;;5094862;28;20206;-80
2021/11/23 09:55:24;;;;;;;31.53;15.90;;;9.00;78.70;;;;;;5095412;28;20460;-79
2021/11/23 09:57:51;;;;;;;28.13;15.80;;;9.00;78.60;;;;;;5108743;28;20517;-80
2021/11/23 10:00:32;;;;;;;30.02;13.57;;;9.00;78.40;;;;;;5087048;28;20492;-79
2021/11/23 10:03:10;;;;;;;27.77;14.38;;;9.20;78.30;;;;;;5081310;28;20564;-80
2021/11/23 10:05:39;;;;;;;34.17;16.10;;;9.30;78.10;;;;;;5097643;28;20191;-80
2021/11/23 10:08:13;;;;;;;26.95;15.60;;;9.30;77.90;;;;;;5081685;28;20212;-79
2021/11/23 10:10:53;;;;;;;36.78;15.90;;;9.40;77.60;;;;;;5103033;28;20195;-80
2021/11/23 10:13:20;;;;;;;26.20;14.02;;;9.30;77.30;;;;;;5104906;28;20623;-80
2021/11/23 10:15:48;;;;;;;28.58;14.73;;;9.30;77.10;;;;;;5096837;28;20183;-80
2021/11/23 10:18:19;;;;;;;27.13;13.80;;;9.40;76.80;;;;;;5098732;28;20188;-81
2021/11/23 10:20:46;;;;;;;29.40;16.90;;;9.50;76.70;;;;;;5115042;28;20172;-80
2021/11/23 10:23:17;;;;;;;29.67;14.35;;;9.50;76.50;;;;;;5084320;28;20195;-81
2021/11/23 10:25:44;;;;;;;28.92;14.02;;;9.60;76.20;;;;;;5085004;28;20646;-81
2021/11/23 10:28:10;;;;;;;37.95;16.60;;;9.70;76.10;;;;;;5083839;28;20183;-81
2021/11/23 10:30:42;;;;;;;24.08;15.43;;;9.80;75.70;;;;;;5104846;28;20179;-81
2021/11/23 10:33:08;;;;;;;26.30;15.85;;;9.90;75.20;;;;;;5084147;28;20496;-81
2021/11/23 10:35:38;;;;;;;34.93;15.10;;;9.90;75.20;;;;;;5083219;28;20206;-81
2021/11/23 10:38:07;;;;;;;30.50;15.73;;;9.90;75.10;;;;;;5082356;28;20501;-81
2021/11/23 10:40:33;;;;;;;33.40;14.30;;;9.90;75.10;;;;;;5081825;28;20172;-80
2021/11/23 10:43:03;;;;;;;31.40;15.45;;;10.00;75.10;;;;;;5099582;28;20180;-82
2021/11/23 10:45:45;;;;;;;25.20;14.00;;;10.10;75.00;;;;;;5090418;28;20196;-81
2021/11/23 10:48:13;;;;;;;21.45;14.70;;;10.10;74.80;;;;;;5081165;28;20234;-81
2021/11/23 10:50:41;;;;;;;28.08;14.05;;;10.20;74.30;;;;;;5079935;28;20175;-81
2021/11/23 10:53:15;;;;;;;26.73;14.00;;;10.40;74.10;;;;;;5090342;28;20309;-81
2021/11/23 10:55:44;;;;;;;25.38;13.43;;;10.40;73.70;;;;;;5078539;28;20203;-81
2021/11/23 10:58:12;;;;;;;25.10;12.97;;;10.40;73.60;;;;;;5091735;28;20176;-81
2021/11/23 11:00:44;;;;;;;34.20;17.52;;;10.60;73.40;;;;;;5111385;28;20171;-80
2021/11/23 11:03:12;;;;;;;22.77;13.40;;;10.50;73.20;;;;;;5116539;28;20172;-80
2021/11/23 11:05:40;;;;;;;35.33;13.35;;;10.50;73.10;;;;;;5097912;28;20222;-80
2021/11/23 11:08:08;;;;;;;29.27;13.50;;;10.60;73.10;;;;;;5088414;28;20191;-80
2021/11/23 11:10:36;;;;;;;25.58;13.73;;;10.70;73.10;;;;;;5079607;28;20180;-80
2021/11/23 11:13:04;;;;;;;35.80;14.05;;;10.80;72.80;;;;;;5077639;28;20190;-81
2021/11/23 11:15:43;;;;;;;36.55;13.82;;;10.60;72.80;;;;;;5078205;28;20208;-81
2021/11/23 11:18:12;;;;;;;28.95;14.75;;;10.60;73.10;;;;;;5101451;28;20206;-80
2021/11/23 11:20:49;;;;;;;21.48;11.90;;;10.70;73.50;;;;;;5081731;28;20190;-81
2021/11/23 11:23:25;;;;;;;23.58;12.70;;;10.70;73.50;;;;;;5081967;28;20562;-80
2021/11/23 11:26:10;;;;;;;21.58;12.68;;;10.90;73.70;;;;;;5082853;28;20638;-81
2021/11/23 11:28:51;;;;;;;23.30;11.70;;;10.90;73.60;;;;;;5082304;28;20195;-81
2021/11/23 11:31:46;;;;;;;19.25;11.55;;;11.00;73.50;;;;;;5101071;28;20180;-81
2021/11/23 11:34:29;;;;;;;21.50;12.60;;;10.90;73.40;;;;;;5083401;28;20195;-81
2021/11/23 11:37:17;;;;;;;20.10;12.80;;;10.90;73.60;;;;;;5082064;28;20214;-81
2021/11/23 11:39:45;;;;;;;29.83;12.30;;;10.80;73.70;;;;;;5083135;28;20218;-81
2021/11/23 11:42:20;;;;;;;18.73;11.20;;;11.00;73.70;;;;;;5102765;28;20172;-81
2021/11/23 11:44:50;;;;;;;26.73;13.07;;;11.00;73.50;;;;;;5103489;28;20184;-81
2021/11/23 11:47:28;;;;;;;18.95;12.60;;;10.80;73.70;;;;;;5096266;28;20168;-81
2021/11/23 11:49:56;;;;;;;25.40;13.77;;;10.60;74.10;;;;;;5095794;28;20197;-80
2021/11/23 11:53:07;;;;;;;18.83;11.38;;;10.60;74.60;;;;;;5093679;28;20255;-81
2021/11/23 11:55:34;;;;;;;22.63;13.10;;;10.60;74.90;;;;;;5052097;28;20203;-80
2021/11/23 11:58:05;;;;;;;22.75;13.32;;;10.70;75.20;;;;;;5084395;28;20188;-81
2021/11/23 12:00:34;;;;;;;35.33;11.95;;;10.80;75.20;;;;;;5086070;28;20208;-81
2021/11/23 12:03:18;;;;;;;26.08;13.30;;;10.90;75.20;;;;;;5100409;28;20183;-80
2021/11/23 12:05:47;;;;;;;27.75;14.90;;;11.10;75.00;;;;;;5083896;28;20199;-81
2021/11/23 12:08:30;;;;;;;30.23;13.25;;;11.00;74.70;;;;;;5075917;28;20172;-81
2021/11/23 12:11:06;;;;;;;32.58;16.15;;;10.80;75.10;;;;;;5083365;28;20191;-80
2021/11/23 12:13:53;;;;;;;30.63;14.88;;;10.50;76.00;;;;;;5082148;28;20188;-80
2021/11/23 12:16:35;;;;;;;26.75;15.20;;;10.30;77.40;;;;;;5076499;28;20543;-81
2021/11/23 12:19:25;;;;;;;30.83;15.48;;;10.30;78.00;;;;;;5068373;28;20211;-81
2021/11/23 12:21:54;;;;;;;30.30;15.52;;;10.10;78.90;;;;;;5082597;28;20172;-81
2021/11/23 12:24:39;;;;;;;28.58;14.50;;;10.10;79.40;;;;;;5086425;28;20214;-80
2021/11/23 12:27:14;;;;;;;30.67;16.75;;;10.20;79.60;;;;;;5104087;28;20678;-81
2021/11/23 12:29:41;;;;;;;20.92;12.93;;;10.20;79.50;;;;;;5066081;28;20188;-81
2021/11/23 12:32:07;;;;;;;49.85;15.48;;;10.30;79.60;;;;;;5100732;28;20183;-81
2021/11/23 12:34:33;;;;;;;36.60;13.95;;;10.40;79.50;;;;;;5100861;28;20203;-81
2021/11/23 12:37:00;;;;;;;25.55;14.43;;;10.50;79.40;;;;;;5082479;28;20253;-81
2021/11/23 12:39:37;;;;;;;28.00;13.50;;;10.70;79.20;;;;;;5082245;28;20233;-80
2021/11/23 12:42:11;;;;;;;27.58;14.77;;;10.80;78.70;;;;;;5101138;28;20544;-81